sensor_id;sensor_type;location;lat;lon;timestamp;P1;durP1;ratioP1;P2;durP2;ratioP2
40781;SDS011;26493;51.938;7.626;2023-08-01T00:00:48;18.02;;;15.70;;
40781;SDS011;26493;51.938;7.626;2023-08-01T00:03:14;17.67;;;14.35;;
40781;SDS011;26493;51.938;7.626;2023-08-01T00:05:40;17.77;;;14.98;;
40781;SDS011;26493;51.938;7.626;2023-08-01T00:08:13;20.50;;;15.57;;
40781;SDS011;26493;51.938;7.626;2023-08-01T00:10:42;17.65;;;15.07;;
40781;SDS011;26493;51.938;7.626;2023-08-01T00:13:08;17.48;;;15.18;;
40781;SDS011;26493;51.938;7.626;2023-08-01T00:15:34;18.35;;;15.43;;
40781;SDS011;26493;51.938;7.626;2023-08-01T00:18:00;17.42;;;15.18;;
40781;SDS011;26493;51.938;7.626;2023-08-01T00:20:26;20.20;;;16.70;;
40781;SDS011;26493;51.938;7.626;2023-08-01T00:22:52;17.98;;;16.00;;
40781;SDS011;26493;51.938;7.626;2023-08-01T00:25:19;20.92;;;14.95;;
40781;SDS011;26493;51.938;7.626;2023-08-01T00:27:45;19.25;;;14.10;;
40781;SDS011;26493;51.938;7.626;2023-08-01T00:30:11;18.60;;;16.60;;
40781;SDS011;26493;51.938;7.626;2023-08-01T00:32:37;18.38;;;16.48;;
40781;SDS011;26493;51.938;7.626;2023-08-01T00:35:03;19.48;;;17.40;;
40781;SDS011;26493;51.938;7.626;2023-08-01T00:37:30;21.10;;;19.10;;
40781;SDS011;26493;51.938;7.626;2023-08-01T00:39:56;22.75;;;20.48;;
40781;SDS011;26493;51.938;7.626;2023-08-01T00:42:22;24.35;;;22.15;;
40781;SDS011;26493;51.938;7.626;2023-08-01T00:44:48;26.05;;;23.42;;
40781;SDS011;26493;51.938;7.626;2023-08-01T00:47:14;24.70;;;22.48;;
40781;SDS011;26493;51.938;7.626;2023-08-01T00:49:40;26.08;;;23.77;;
40781;SDS011;26493;51.938;7.626;2023-08-01T00:52:06;24.35;;;22.17;;
40781;SDS011;26493;51.938;7.626;2023-08-01T00:54:34;26.33;;;24.13;;
40781;SDS011;26493;51.938;7.626;2023-08-01T00:59:27;27.02;;;24.73;;
40781;SDS011;26493;51.938;7.626;2023-08-01T01:01:53;26.63;;;24.38;;
40781;SDS011;26493;51.938;7.626;2023-08-01T01:04:19;25.98;;;23.77;;
40781;SDS011;26493;51.938;7.626;2023-08-01T01:06:53;26.30;;;24.05;;
40781;SDS011;26493;51.938;7.626;2023-08-01T01:09:23;25.88;;;23.58;;
40781;SDS011;26493;51.938;7.626;2023-08-01T01:11:49;26.17;;;23.77;;
40781;SDS011;26493;51.938;7.626;2023-08-01T01:14:15;25.88;;;23.58;;
40781;SDS011;26493;51.938;7.626;2023-08-01T01:16:41;26.65;;;24.05;;
40781;SDS011;26493;51.938;7.626;2023-08-01T01:19:08;25.60;;;23.40;;
40781;SDS011;26493;51.938;7.626;2023-08-01T01:21:35;27.13;;;24.73;;
40781;SDS011;26493;51.938;7.626;2023-08-01T01:24:02;27.10;;;24.75;;
40781;SDS011;26493;51.938;7.626;2023-08-01T01:26:29;26.92;;;24.63;;
40781;SDS011;26493;51.938;7.626;2023-08-01T01:28:55;25.80;;;23.60;;
40781;SDS011;26493;51.938;7.626;2023-08-01T01:31:21;26.00;;;23.70;;
40781;SDS011;26493;51.938;7.626;2023-08-01T01:33:47;26.13;;;23.92;;
40781;SDS011;26493;51.938;7.626;2023-08-01T01:36:13;26.92;;;24.52;;
40781;SDS011;26493;51.938;7.626;2023-08-01T01:38:39;26.50;;;24.25;;
40781;SDS011;26493;51.938;7.626;2023-08-01T01:41:05;26.45;;;24.15;;
40781;SDS011;26493;51.938;7.626;2023-08-01T01:43:31;25.60;;;23.40;;
40781;SDS011;26493;51.938;7.626;2023-08-01T01:45:57;24.90;;;22.70;;
40781;SDS011;26493;51.938;7.626;2023-08-01T01:48:23;25.88;;;23.58;;
40781;SDS011;26493;51.938;7.626;2023-08-01T01:50:49;25.67;;;23.33;;
40781;SDS011;26493;51.938;7.626;2023-08-01T01:53:14;25.27;;;22.75;;
40781;SDS011;26493;51.938;7.626;2023-08-01T01:55:40;25.02;;;22.83;;
40781;SDS011;26493;51.938;7.626;2023-08-01T01:58:06;25.60;;;23.30;;
40781;SDS011;26493;51.938;7.626;2023-08-01T02:00:32;24.15;;;21.95;;
40781;SDS011;26493;51.938;7.626;2023-08-01T02:02:58;25.00;;;22.55;;
40781;SDS011;26493;51.938;7.626;2023-08-01T02:05:26;25.10;;;22.90;;
40781;SDS011;26493;51.938;7.626;2023-08-01T02:07:52;25.80;;;23.50;;
40781;SDS011;26493;51.938;7.626;2023-08-01T02:10:18;25.38;;;22.98;;
40781;SDS011;26493;51.938;7.626;2023-08-01T02:12:44;24.85;;;22.63;;
40781;SDS011;26493;51.938;7.626;2023-08-01T02:15:10;24.75;;;22.38;;
40781;SDS011;26493;51.938;7.626;2023-08-01T02:17:36;25.25;;;22.58;;
40781;SDS011;26493;51.938;7.626;2023-08-01T02:20:02;25.30;;;22.90;;
40781;SDS011;26493;51.938;7.626;2023-08-01T02:22:28;24.42;;;22.17;;
40781;SDS011;26493;51.938;7.626;2023-08-01T02:24:54;24.45;;;21.90;;
40781;SDS011;26493;51.938;7.626;2023-08-01T02:27:20;25.00;;;22.58;;
40781;SDS011;26493;51.938;7.626;2023-08-01T02:29:46;24.80;;;22.30;;
40781;SDS011;26493;51.938;7.626;2023-08-01T02:32:12;23.58;;;21.20;;
40781;SDS011;26493;51.938;7.626;2023-08-01T02:34:38;24.70;;;22.23;;
40781;SDS011;26493;51.938;7.626;2023-08-01T02:37:04;24.38;;;22.08;;
40781;SDS011;26493;51.938;7.626;2023-08-01T02:39:30;24.73;;;22.33;;
40781;SDS011;26493;51.938;7.626;2023-08-01T02:41:56;24.23;;;21.92;;
40781;SDS011;26493;51.938;7.626;2023-08-01T02:44:22;24.92;;;22.52;;
40781;SDS011;26493;51.938;7.626;2023-08-01T02:46:47;25.25;;;22.83;;
40781;SDS011;26493;51.938;7.626;2023-08-01T02:49:13;25.40;;;22.85;;
40781;SDS011;26493;51.938;7.626;2023-08-01T02:51:39;25.10;;;22.70;;
40781;SDS011;26493;51.938;7.626;2023-08-01T02:54:05;24.98;;;22.58;;
40781;SDS011;26493;51.938;7.626;2023-08-01T02:56:31;26.00;;;23.38;;
40781;SDS011;26493;51.938;7.626;2023-08-01T02:58:57;25.20;;;22.60;;
40781;SDS011;26493;51.938;7.626;2023-08-01T03:01:23;25.73;;;23.10;;
40781;SDS011;26493;51.938;7.626;2023-08-01T03:03:49;24.08;;;21.77;;
40781;SDS011;26493;51.938;7.626;2023-08-01T03:06:15;27.48;;;23.90;;
40781;SDS011;26493;51.938;7.626;2023-08-01T03:08:41;26.42;;;23.92;;
40781;SDS011;26493;51.938;7.626;2023-08-01T03:11:07;25.92;;;23.35;;
40781;SDS011;26493;51.938;7.626;2023-08-01T03:13:33;27.38;;;24.60;;
40781;SDS011;26493;51.938;7.626;2023-08-01T03:15:59;28.13;;;25.38;;
40781;SDS011;26493;51.938;7.626;2023-08-01T03:18:25;27.80;;;24.95;;
40781;SDS011;26493;51.938;7.626;2023-08-01T03:20:51;26.48;;;23.73;;
40781;SDS011;26493;51.938;7.626;2023-08-01T03:23:17;27.45;;;24.73;;
40781;SDS011;26493;51.938;7.626;2023-08-01T03:25:43;28.48;;;25.58;;
40781;SDS011;26493;51.938;7.626;2023-08-01T03:28:09;28.27;;;25.63;;
40781;SDS011;26493;51.938;7.626;2023-08-01T03:30:35;29.23;;;26.23;;
40781;SDS011;26493;51.938;7.626;2023-08-01T03:33:01;28.88;;;26.00;;
40781;SDS011;26493;51.938;7.626;2023-08-01T03:35:27;29.63;;;26.73;;
40781;SDS011;26493;51.938;7.626;2023-08-01T03:37:53;28.65;;;25.52;;
40781;SDS011;26493;51.938;7.626;2023-08-01T03:40:19;28.73;;;25.83;;
40781;SDS011;26493;51.938;7.626;2023-08-01T03:42:46;29.38;;;26.38;;
40781;SDS011;26493;51.938;7.626;2023-08-01T03:45:12;27.55;;;24.73;;
40781;SDS011;26493;51.938;7.626;2023-08-01T03:47:38;28.50;;;25.55;;
40781;SDS011;26493;51.938;7.626;2023-08-01T03:50:04;28.50;;;25.67;;
40781;SDS011;26493;51.938;7.626;2023-08-01T03:52:30;28.10;;;25.30;;
40781;SDS011;26493;51.938;7.626;2023-08-01T03:54:56;27.88;;;25.08;;
40781;SDS011;26493;51.938;7.626;2023-08-01T03:57:22;28.95;;;25.60;;
40781;SDS011;26493;51.938;7.626;2023-08-01T03:59:48;29.45;;;25.90;;
40781;SDS011;26493;51.938;7.626;2023-08-01T04:02:14;30.08;;;25.63;;
40781;SDS011;26493;51.938;7.626;2023-08-01T04:04:40;29.63;;;26.52;;
40781;SDS011;26493;51.938;7.626;2023-08-01T04:07:06;29.52;;;26.33;;
40781;SDS011;26493;51.938;7.626;2023-08-01T04:09:33;30.30;;;27.13;;
40781;SDS011;26493;51.938;7.626;2023-08-01T04:11:59;30.63;;;27.35;;
40781;SDS011;26493;51.938;7.626;2023-08-01T04:14:25;31.92;;;27.58;;
40781;SDS011;26493;51.938;7.626;2023-08-01T04:16:51;29.52;;;26.33;;
40781;SDS011;26493;51.938;7.626;2023-08-01T04:19:17;31.38;;;26.77;;
40781;SDS011;26493;51.938;7.626;2023-08-01T04:21:43;30.20;;;27.23;;
40781;SDS011;26493;51.938;7.626;2023-08-01T04:24:09;31.80;;;26.80;;
40781;SDS011;26493;51.938;7.626;2023-08-01T04:26:35;31.42;;;27.38;;
40781;SDS011;26493;51.938;7.626;2023-08-01T04:29:01;31.17;;;28.00;;
40781;SDS011;26493;51.938;7.626;2023-08-01T04:31:27;29.40;;;26.40;;
40781;SDS011;26493;51.938;7.626;2023-08-01T04:33:53;31.63;;;28.42;;
40781;SDS011;26493;51.938;7.626;2023-08-01T04:36:19;31.55;;;27.95;;
40781;SDS011;26493;51.938;7.626;2023-08-01T04:38:45;30.85;;;27.45;;
40781;SDS011;26493;51.938;7.626;2023-08-01T04:41:11;31.13;;;26.17;;
40781;SDS011;26493;51.938;7.626;2023-08-01T04:43:37;31.55;;;27.92;;
40781;SDS011;26493;51.938;7.626;2023-08-01T04:46:03;30.25;;;26.65;;
40781;SDS011;26493;51.938;7.626;2023-08-01T04:48:29;30.50;;;27.30;;
40781;SDS011;26493;51.938;7.626;2023-08-01T04:50:55;30.10;;;27.13;;
40781;SDS011;26493;51.938;7.626;2023-08-01T04:53:21;31.80;;;27.63;;
40781;SDS011;26493;51.938;7.626;2023-08-01T04:55:47;31.52;;;27.35;;
40781;SDS011;26493;51.938;7.626;2023-08-01T04:58:13;30.52;;;27.42;;
40781;SDS011;26493;51.938;7.626;2023-08-01T05:00:40;29.42;;;25.92;;
40781;SDS011;26493;51.938;7.626;2023-08-01T05:03:07;33.05;;;26.48;;
40781;SDS011;26493;51.938;7.626;2023-08-01T05:05:33;35.58;;;27.98;;
40781;SDS011;26493;51.938;7.626;2023-08-01T05:07:58;33.28;;;27.75;;
40781;SDS011;26493;51.938;7.626;2023-08-01T05:10:24;35.58;;;27.95;;
40781;SDS011;26493;51.938;7.626;2023-08-01T05:12:50;36.67;;;28.83;;
40781;SDS011;26493;51.938;7.626;2023-08-01T05:15:16;31.15;;;27.73;;
40781;SDS011;26493;51.938;7.626;2023-08-01T05:17:42;35.00;;;27.92;;
40781;SDS011;26493;51.938;7.626;2023-08-01T05:20:08;30.58;;;27.35;;
40781;SDS011;26493;51.938;7.626;2023-08-01T05:22:35;32.15;;;28.67;;
40781;SDS011;26493;51.938;7.626;2023-08-01T05:25:01;34.40;;;27.50;;
40781;SDS011;26493;51.938;7.626;2023-08-01T05:27:28;33.40;;;27.80;;
40781;SDS011;26493;51.938;7.626;2023-08-01T05:29:54;31.23;;;25.92;;
40781;SDS011;26493;51.938;7.626;2023-08-01T05:32:20;31.20;;;26.80;;
40781;SDS011;26493;51.938;7.626;2023-08-01T05:34:46;34.15;;;28.67;;
40781;SDS011;26493;51.938;7.626;2023-08-01T05:37:12;33.70;;;28.83;;
40781;SDS011;26493;51.938;7.626;2023-08-01T05:39:38;33.40;;;27.95;;
40781;SDS011;26493;51.938;7.626;2023-08-01T05:42:04;34.85;;;29.10;;
40781;SDS011;26493;51.938;7.626;2023-08-01T05:44:33;34.38;;;27.23;;
40781;SDS011;26493;51.938;7.626;2023-08-01T05:46:59;35.45;;;28.00;;
40781;SDS011;26493;51.938;7.626;2023-08-01T05:49:25;32.90;;;27.00;;
40781;SDS011;26493;51.938;7.626;2023-08-01T05:51:51;29.42;;;24.92;;
40781;SDS011;26493;51.938;7.626;2023-08-01T05:54:17;32.55;;;24.73;;
40781;SDS011;26493;51.938;7.626;2023-08-01T05:56:43;30.17;;;24.23;;
40781;SDS011;26493;51.938;7.626;2023-08-01T05:59:09;31.17;;;23.67;;
40781;SDS011;26493;51.938;7.626;2023-08-01T06:01:35;29.40;;;23.92;;
40781;SDS011;26493;51.938;7.626;2023-08-01T06:04:01;36.58;;;25.35;;
40781;SDS011;26493;51.938;7.626;2023-08-01T06:06:27;31.08;;;25.65;;
40781;SDS011;26493;51.938;7.626;2023-08-01T06:08:53;33.90;;;28.17;;
40781;SDS011;26493;51.938;7.626;2023-08-01T06:11:19;30.15;;;26.38;;
40781;SDS011;26493;51.938;7.626;2023-08-01T06:13:45;34.70;;;26.90;;
40781;SDS011;26493;51.938;7.626;2023-08-01T06:16:11;33.22;;;26.98;;
40781;SDS011;26493;51.938;7.626;2023-08-01T06:18:37;29.63;;;26.60;;
40781;SDS011;26493;51.938;7.626;2023-08-01T06:21:03;34.08;;;27.58;;
40781;SDS011;26493;51.938;7.626;2023-08-01T06:23:29;33.92;;;26.67;;
40781;SDS011;26493;51.938;7.626;2023-08-01T06:25:55;30.83;;;25.42;;
40781;SDS011;26493;51.938;7.626;2023-08-01T06:28:21;32.83;;;26.50;;
40781;SDS011;26493;51.938;7.626;2023-08-01T06:30:47;33.67;;;29.75;;
40781;SDS011;26493;51.938;7.626;2023-08-01T06:33:13;35.05;;;30.95;;
40781;SDS011;26493;51.938;7.626;2023-08-01T06:35:39;34.20;;;29.08;;
40781;SDS011;26493;51.938;7.626;2023-08-01T06:38:05;35.22;;;31.42;;
40781;SDS011;26493;51.938;7.626;2023-08-01T06:40:31;35.55;;;31.63;;
40781;SDS011;26493;51.938;7.626;2023-08-01T06:42:57;39.67;;;35.78;;
40781;SDS011;26493;51.938;7.626;2023-08-01T06:45:23;38.47;;;33.20;;
40781;SDS011;26493;51.938;7.626;2023-08-01T06:47:49;41.35;;;37.30;;
40781;SDS011;26493;51.938;7.626;2023-08-01T06:50:15;39.72;;;35.33;;
40781;SDS011;26493;51.938;7.626;2023-08-01T06:52:41;40.38;;;36.50;;
40781;SDS011;26493;51.938;7.626;2023-08-01T06:55:07;40.30;;;36.15;;
40781;SDS011;26493;51.938;7.626;2023-08-01T06:57:33;41.30;;;37.05;;
40781;SDS011;26493;51.938;7.626;2023-08-01T06:59:59;40.08;;;35.85;;
40781;SDS011;26493;51.938;7.626;2023-08-01T07:02:25;42.22;;;37.67;;
40781;SDS011;26493;51.938;7.626;2023-08-01T07:04:51;39.47;;;35.47;;
40781;SDS011;26493;51.938;7.626;2023-08-01T07:07:17;39.65;;;35.40;;
40781;SDS011;26493;51.938;7.626;2023-08-01T07:09:43;38.85;;;34.85;;
40781;SDS011;26493;51.938;7.626;2023-08-01T07:12:09;39.40;;;35.67;;
40781;SDS011;26493;51.938;7.626;2023-08-01T07:14:35;39.13;;;35.13;;
40781;SDS011;26493;51.938;7.626;2023-08-01T07:17:01;39.47;;;35.67;;
40781;SDS011;26493;51.938;7.626;2023-08-01T07:19:27;39.33;;;35.40;;
40781;SDS011;26493;51.938;7.626;2023-08-01T07:21:53;39.40;;;35.58;;
40781;SDS011;26493;51.938;7.626;2023-08-01T07:24:19;40.53;;;36.83;;
40781;SDS011;26493;51.938;7.626;2023-08-01T07:26:45;40.10;;;36.25;;
40781;SDS011;26493;51.938;7.626;2023-08-01T07:29:11;40.22;;;36.20;;
40781;SDS011;26493;51.938;7.626;2023-08-01T07:31:40;39.83;;;35.70;;
40781;SDS011;26493;51.938;7.626;2023-08-01T07:34:06;39.08;;;35.22;;
40781;SDS011;26493;51.938;7.626;2023-08-01T07:36:32;39.65;;;35.85;;
40781;SDS011;26493;51.938;7.626;2023-08-01T07:38:58;40.80;;;37.08;;
40781;SDS011;26493;51.938;7.626;2023-08-01T07:41:24;40.63;;;36.40;;
40781;SDS011;26493;51.938;7.626;2023-08-01T07:43:50;38.92;;;35.33;;
40781;SDS011;26493;51.938;7.626;2023-08-01T07:46:16;40.85;;;36.58;;
40781;SDS011;26493;51.938;7.626;2023-08-01T07:48:42;40.90;;;36.10;;
40781;SDS011;26493;51.938;7.626;2023-08-01T07:51:08;40.78;;;36.78;;
40781;SDS011;26493;51.938;7.626;2023-08-01T07:53:36;39.17;;;35.15;;
40781;SDS011;26493;51.938;7.626;2023-08-01T07:56:02;42.38;;;37.95;;
40781;SDS011;26493;51.938;7.626;2023-08-01T07:58:28;42.97;;;38.55;;
40781;SDS011;26493;51.938;7.626;2023-08-01T08:00:54;43.88;;;39.70;;
40781;SDS011;26493;51.938;7.626;2023-08-01T08:03:20;42.50;;;38.22;;
40781;SDS011;26493;51.938;7.626;2023-08-01T08:05:48;41.78;;;37.67;;
40781;SDS011;26493;51.938;7.626;2023-08-01T08:08:14;42.30;;;38.03;;
40781;SDS011;26493;51.938;7.626;2023-08-01T08:10:40;42.88;;;38.33;;
40781;SDS011;26493;51.938;7.626;2023-08-01T08:13:06;42.25;;;38.03;;
40781;SDS011;26493;51.938;7.626;2023-08-01T08:15:32;41.92;;;38.05;;
40781;SDS011;26493;51.938;7.626;2023-08-01T08:18:00;41.92;;;37.65;;
40781;SDS011;26493;51.938;7.626;2023-08-01T08:20:34;39.80;;;36.15;;
40781;SDS011;26493;51.938;7.626;2023-08-01T08:23:06;39.03;;;35.38;;
40781;SDS011;26493;51.938;7.626;2023-08-01T08:25:32;38.03;;;34.72;;
40781;SDS011;26493;51.938;7.626;2023-08-01T08:27:58;38.40;;;34.80;;
40781;SDS011;26493;51.938;7.626;2023-08-01T08:30:24;39.28;;;35.53;;
40781;SDS011;26493;51.938;7.626;2023-08-01T08:32:50;39.92;;;36.38;;
40781;SDS011;26493;51.938;7.626;2023-08-01T08:35:16;40.42;;;36.50;;
40781;SDS011;26493;51.938;7.626;2023-08-01T08:37:42;38.83;;;35.35;;
40781;SDS011;26493;51.938;7.626;2023-08-01T08:40:08;39.97;;;36.47;;
40781;SDS011;26493;51.938;7.626;2023-08-01T08:42:34;38.35;;;34.97;;
40781;SDS011;26493;51.938;7.626;2023-08-01T08:45:01;34.42;;;31.40;;
40781;SDS011;26493;51.938;7.626;2023-08-01T08:47:27;32.65;;;29.85;;
40781;SDS011;26493;51.938;7.626;2023-08-01T08:49:57;32.45;;;29.40;;
40781;SDS011;26493;51.938;7.626;2023-08-01T08:52:24;34.67;;;31.73;;
40781;SDS011;26493;51.938;7.626;2023-08-01T08:54:50;33.75;;;30.75;;
40781;SDS011;26493;51.938;7.626;2023-08-01T08:57:16;31.63;;;28.63;;
40781;SDS011;26493;51.938;7.626;2023-08-01T08:59:44;31.05;;;28.08;;
40781;SDS011;26493;51.938;7.626;2023-08-01T09:02:10;30.55;;;27.65;;
40781;SDS011;26493;51.938;7.626;2023-08-01T09:04:36;26.15;;;23.65;;
40781;SDS011;26493;51.938;7.626;2023-08-01T09:07:03;21.83;;;17.85;;
40781;SDS011;26493;51.938;7.626;2023-08-01T09:09:31;22.98;;;17.25;;
40781;SDS011;26493;51.938;7.626;2023-08-01T09:11:58;23.90;;;15.00;;
40781;SDS011;26493;51.938;7.626;2023-08-01T09:14:24;23.42;;;14.15;;
40781;SDS011;26493;51.938;7.626;2023-08-01T09:16:50;20.83;;;13.02;;
40781;SDS011;26493;51.938;7.626;2023-08-01T09:19:17;23.10;;;14.05;;
40781;SDS011;26493;51.938;7.626;2023-08-01T09:21:43;21.52;;;13.48;;
40781;SDS011;26493;51.938;7.626;2023-08-01T09:24:10;22.75;;;13.98;;
40781;SDS011;26493;51.938;7.626;2023-08-01T09:26:36;20.92;;;13.13;;
40781;SDS011;26493;51.938;7.626;2023-08-01T09:29:02;19.60;;;13.88;;
40781;SDS011;26493;51.938;7.626;2023-08-01T09:31:29;21.25;;;13.00;;
40781;SDS011;26493;51.938;7.626;2023-08-01T09:33:55;21.60;;;12.63;;
40781;SDS011;26493;51.938;7.626;2023-08-01T09:36:22;21.23;;;11.75;;
40781;SDS011;26493;51.938;7.626;2023-08-01T09:38:49;18.17;;;10.75;;
40781;SDS011;26493;51.938;7.626;2023-08-01T09:41:18;22.08;;;12.45;;
40781;SDS011;26493;51.938;7.626;2023-08-01T09:43:45;20.10;;;11.95;;
40781;SDS011;26493;51.938;7.626;2023-08-01T09:46:12;16.60;;;9.73;;
40781;SDS011;26493;51.938;7.626;2023-08-01T09:48:38;20.85;;;10.15;;
40781;SDS011;26493;51.938;7.626;2023-08-01T09:51:05;18.02;;;9.57;;
40781;SDS011;26493;51.938;7.626;2023-08-01T09:53:31;16.15;;;10.00;;
40781;SDS011;26493;51.938;7.626;2023-08-01T09:56:01;20.88;;;10.13;;
40781;SDS011;26493;51.938;7.626;2023-08-01T09:58:30;20.58;;;10.68;;
40781;SDS011;26493;51.938;7.626;2023-08-01T10:00:57;20.02;;;9.68;;
40781;SDS011;26493;51.938;7.626;2023-08-01T10:03:23;17.52;;;9.73;;
40781;SDS011;26493;51.938;7.626;2023-08-01T10:05:51;20.08;;;10.40;;
40781;SDS011;26493;51.938;7.626;2023-08-01T10:08:19;17.95;;;10.30;;
40781;SDS011;26493;51.938;7.626;2023-08-01T10:10:46;18.48;;;9.90;;
40781;SDS011;26493;51.938;7.626;2023-08-01T10:13:12;19.30;;;10.05;;
40781;SDS011;26493;51.938;7.626;2023-08-01T10:15:38;20.52;;;11.60;;
40781;SDS011;26493;51.938;7.626;2023-08-01T10:18:04;19.40;;;10.85;;
40781;SDS011;26493;51.938;7.626;2023-08-01T10:20:30;19.13;;;11.25;;
40781;SDS011;26493;51.938;7.626;2023-08-01T10:22:56;18.58;;;10.90;;
40781;SDS011;26493;51.938;7.626;2023-08-01T10:25:23;17.88;;;10.32;;
40781;SDS011;26493;51.938;7.626;2023-08-01T10:28:01;17.43;;;10.43;;
40781;SDS011;26493;51.938;7.626;2023-08-01T10:30:27;21.35;;;11.65;;
40781;SDS011;26493;51.938;7.626;2023-08-01T10:32:57;19.70;;;11.23;;
40781;SDS011;26493;51.938;7.626;2023-08-01T10:35:36;17.63;;;12.45;;
40781;SDS011;26493;51.938;7.626;2023-08-01T10:38:07;19.88;;;17.23;;
40781;SDS011;26493;51.938;7.626;2023-08-01T10:40:37;18.77;;;14.98;;
40781;SDS011;26493;51.938;7.626;2023-08-01T10:43:03;19.10;;;13.30;;
40781;SDS011;26493;51.938;7.626;2023-08-01T10:45:29;17.02;;;12.10;;
40781;SDS011;26493;51.938;7.626;2023-08-01T10:48:06;19.35;;;12.55;;
40781;SDS011;26493;51.938;7.626;2023-08-01T10:50:32;20.80;;;14.02;;
40781;SDS011;26493;51.938;7.626;2023-08-01T10:53:05;17.55;;;11.63;;
40781;SDS011;26493;51.938;7.626;2023-08-01T10:55:47;18.67;;;12.05;;
40781;SDS011;26493;51.938;7.626;2023-08-01T10:58:14;18.75;;;11.10;;
40781;SDS011;26493;51.938;7.626;2023-08-01T11:00:41;18.83;;;11.15;;
40781;SDS011;26493;51.938;7.626;2023-08-01T11:03:07;18.65;;;10.52;;
40781;SDS011;26493;51.938;7.626;2023-08-01T11:05:33;19.95;;;10.48;;
40781;SDS011;26493;51.938;7.626;2023-08-01T11:07:59;21.50;;;10.02;;
40781;SDS011;26493;51.938;7.626;2023-08-01T11:10:26;17.55;;;9.20;;
40781;SDS011;26493;51.938;7.626;2023-08-01T11:12:53;19.20;;;10.65;;
40781;SDS011;26493;51.938;7.626;2023-08-01T11:15:19;16.83;;;9.85;;
40781;SDS011;26493;51.938;7.626;2023-08-01T11:17:49;17.48;;;9.60;;
40781;SDS011;26493;51.938;7.626;2023-08-01T11:20:16;19.20;;;10.30;;
40781;SDS011;26493;51.938;7.626;2023-08-01T11:22:55;15.70;;;9.10;;
40781;SDS011;26493;51.938;7.626;2023-08-01T11:28:19;16.15;;;9.45;;
40781;SDS011;26493;51.938;7.626;2023-08-01T11:30:45;19.23;;;9.57;;
40781;SDS011;26493;51.938;7.626;2023-08-01T11:33:21;16.35;;;9.55;;
40781;SDS011;26493;51.938;7.626;2023-08-01T11:35:51;17.55;;;9.55;;
40781;SDS011;26493;51.938;7.626;2023-08-01T11:38:19;17.95;;;10.35;;
40781;SDS011;26493;51.938;7.626;2023-08-01T11:40:45;17.15;;;10.05;;
40781;SDS011;26493;51.938;7.626;2023-08-01T11:43:14;16.52;;;9.65;;
40781;SDS011;26493;51.938;7.626;2023-08-01T11:45:47;21.05;;;10.75;;
40781;SDS011;26493;51.938;7.626;2023-08-01T11:48:14;16.00;;;8.98;;
40781;SDS011;26493;51.938;7.626;2023-08-01T11:50:39;17.20;;;9.40;;
40781;SDS011;26493;51.938;7.626;2023-08-01T11:53:05;15.40;;;8.27;;
40781;SDS011;26493;51.938;7.626;2023-08-01T11:55:31;16.50;;;8.38;;
40781;SDS011;26493;51.938;7.626;2023-08-01T11:58:01;17.48;;;9.23;;
40781;SDS011;26493;51.938;7.626;2023-08-01T12:00:29;14.80;;;8.55;;
40781;SDS011;26493;51.938;7.626;2023-08-01T12:03:08;16.90;;;9.10;;
40781;SDS011;26493;51.938;7.626;2023-08-01T12:05:38;17.77;;;9.50;;
40781;SDS011;26493;51.938;7.626;2023-08-01T12:08:09;15.27;;;9.02;;
40781;SDS011;26493;51.938;7.626;2023-08-01T12:10:53;16.23;;;8.85;;
40781;SDS011;26493;51.938;7.626;2023-08-01T12:13:23;15.50;;;8.63;;
40781;SDS011;26493;51.938;7.626;2023-08-01T12:15:49;18.00;;;9.40;;
40781;SDS011;26493;51.938;7.626;2023-08-01T12:18:25;19.55;;;9.05;;
40781;SDS011;26493;51.938;7.626;2023-08-01T12:20:52;19.30;;;9.10;;
40781;SDS011;26493;51.938;7.626;2023-08-01T12:23:18;16.95;;;8.80;;
40781;SDS011;26493;51.938;7.626;2023-08-01T12:25:44;15.90;;;8.10;;
40781;SDS011;26493;51.938;7.626;2023-08-01T12:28:10;16.80;;;8.32;;
40781;SDS011;26493;51.938;7.626;2023-08-01T12:30:38;16.65;;;8.02;;
40781;SDS011;26493;51.938;7.626;2023-08-01T12:33:05;17.33;;;8.68;;
40781;SDS011;26493;51.938;7.626;2023-08-01T12:35:31;16.88;;;8.50;;
40781;SDS011;26493;51.938;7.626;2023-08-01T12:37:57;15.88;;;8.70;;
40781;SDS011;26493;51.938;7.626;2023-08-01T12:40:23;17.02;;;8.43;;
40781;SDS011;26493;51.938;7.626;2023-08-01T12:42:49;17.23;;;9.00;;
40781;SDS011;26493;51.938;7.626;2023-08-01T12:45:15;16.13;;;8.65;;
40781;SDS011;26493;51.938;7.626;2023-08-01T12:47:41;18.33;;;9.55;;
40781;SDS011;26493;51.938;7.626;2023-08-01T12:50:07;18.23;;;8.68;;
40781;SDS011;26493;51.938;7.626;2023-08-01T12:52:33;16.70;;;8.80;;
40781;SDS011;26493;51.938;7.626;2023-08-01T12:54:59;16.73;;;9.88;;
40781;SDS011;26493;51.938;7.626;2023-08-01T12:57:25;20.83;;;9.35;;
40781;SDS011;26493;51.938;7.626;2023-08-01T12:59:51;16.85;;;9.00;;
40781;SDS011;26493;51.938;7.626;2023-08-01T13:02:17;15.50;;;8.77;;
40781;SDS011;26493;51.938;7.626;2023-08-01T13:04:43;17.42;;;9.20;;
40781;SDS011;26493;51.938;7.626;2023-08-01T13:07:09;15.80;;;9.23;;
40781;SDS011;26493;51.938;7.626;2023-08-01T13:09:35;21.15;;;9.07;;
40781;SDS011;26493;51.938;7.626;2023-08-01T13:12:01;18.13;;;9.18;;
40781;SDS011;26493;51.938;7.626;2023-08-01T13:14:28;15.90;;;9.50;;
40781;SDS011;26493;51.938;7.626;2023-08-01T13:16:54;18.13;;;9.38;;
40781;SDS011;26493;51.938;7.626;2023-08-01T13:19:20;15.88;;;8.68;;
40781;SDS011;26493;51.938;7.626;2023-08-01T13:21:45;16.35;;;10.45;;
40781;SDS011;26493;51.938;7.626;2023-08-01T13:24:11;16.75;;;9.80;;
40781;SDS011;26493;51.938;7.626;2023-08-01T13:26:37;17.77;;;9.85;;
40781;SDS011;26493;51.938;7.626;2023-08-01T13:29:04;16.60;;;9.98;;
40781;SDS011;26493;51.938;7.626;2023-08-01T13:31:30;20.27;;;10.60;;
40781;SDS011;26493;51.938;7.626;2023-08-01T13:33:55;17.75;;;9.82;;
40781;SDS011;26493;51.938;7.626;2023-08-01T13:36:23;16.25;;;9.93;;
40781;SDS011;26493;51.938;7.626;2023-08-01T13:38:49;16.75;;;10.30;;
40781;SDS011;26493;51.938;7.626;2023-08-01T13:41:15;17.52;;;10.48;;
40781;SDS011;26493;51.938;7.626;2023-08-01T13:43:41;19.20;;;10.40;;
40781;SDS011;26493;51.938;7.626;2023-08-01T13:46:25;15.93;;;10.07;;
40781;SDS011;26493;51.938;7.626;2023-08-01T13:48:51;17.00;;;9.93;;
40781;SDS011;26493;51.938;7.626;2023-08-01T13:51:16;16.92;;;10.43;;
40781;SDS011;26493;51.938;7.626;2023-08-01T13:53:42;21.30;;;10.32;;
40781;SDS011;26493;51.938;7.626;2023-08-01T13:56:12;17.33;;;10.60;;
40781;SDS011;26493;51.938;7.626;2023-08-01T13:58:38;16.42;;;11.10;;
40781;SDS011;26493;51.938;7.626;2023-08-01T14:01:05;20.67;;;10.90;;
40781;SDS011;26493;51.938;7.626;2023-08-01T14:03:35;20.35;;;10.55;;
40781;SDS011;26493;51.938;7.626;2023-08-01T14:06:08;22.20;;;11.75;;
40781;SDS011;26493;51.938;7.626;2023-08-01T14:08:34;16.85;;;10.93;;
40781;SDS011;26493;51.938;7.626;2023-08-01T14:11:04;16.88;;;10.68;;
40781;SDS011;26493;51.938;7.626;2023-08-01T14:13:30;18.20;;;10.50;;
40781;SDS011;26493;51.938;7.626;2023-08-01T14:15:56;16.13;;;11.15;;
40781;SDS011;26493;51.938;7.626;2023-08-01T14:18:22;17.92;;;10.75;;
40781;SDS011;26493;51.938;7.626;2023-08-01T14:20:48;21.90;;;11.10;;
40781;SDS011;26493;51.938;7.626;2023-08-01T14:23:14;16.98;;;11.18;;
40781;SDS011;26493;51.938;7.626;2023-08-01T14:25:40;17.33;;;10.75;;